sensor_id;sensor_type;location;lat;lon;timestamp;P1;durP1;ratioP1;P2;durP2;ratioP2
12880;SDS011;6508;53.786;9.996;2023-03-14T00:01:16;9.23;;;3.28;;
12880;SDS011;6508;53.786;9.996;2023-03-14T00:03:46;6.85;;;2.90;;
12880;SDS011;6508;53.786;9.996;2023-03-14T00:06:16;5.78;;;3.38;;
12880;SDS011;6508;53.786;9.996;2023-03-14T00:08:44;7.97;;;2.97;;
12880;SDS011;6508;53.786;9.996;2023-03-14T00:11:13;6.70;;;3.10;;
12880;SDS011;6508;53.786;9.996;2023-03-14T00:13:42;7.50;;;3.20;;
12880;SDS011;6508;53.786;9.996;2023-03-14T00:16:10;8.48;;;3.45;;
12880;SDS011;6508;53.786;9.996;2023-03-14T00:18:39;5.30;;;3.58;;
12880;SDS011;6508;53.786;9.996;2023-03-14T00:21:08;6.25;;;3.40;;
12880;SDS011;6508;53.786;9.996;2023-03-14T00:23:39;5.13;;;3.75;;
12880;SDS011;6508;53.786;9.996;2023-03-14T00:26:09;9.75;;;3.63;;
12880;SDS011;6508;53.786;9.996;2023-03-14T00:28:38;8.45;;;3.35;;
12880;SDS011;6508;53.786;9.996;2023-03-14T00:31:06;8.18;;;3.40;;
12880;SDS011;6508;53.786;9.996;2023-03-14T00:33:35;8.35;;;3.35;;
12880;SDS011;6508;53.786;9.996;2023-03-14T00:36:04;8.13;;;3.42;;
12880;SDS011;6508;53.786;9.996;2023-03-14T00:38:37;10.60;;;3.30;;
12880;SDS011;6508;53.786;9.996;2023-03-14T00:41:06;6.57;;;3.25;;
12880;SDS011;6508;53.786;9.996;2023-03-14T00:43:35;7.28;;;3.00;;
12880;SDS011;6508;53.786;9.996;2023-03-14T00:46:03;8.02;;;3.05;;
12880;SDS011;6508;53.786;9.996;2023-03-14T00:48:31;4.95;;;3.25;;
12880;SDS011;6508;53.786;9.996;2023-03-14T00:51:00;7.65;;;3.20;;
12880;SDS011;6508;53.786;9.996;2023-03-14T00:53:28;5.55;;;3.17;;
12880;SDS011;6508;53.786;9.996;2023-03-14T00:55:59;5.53;;;2.97;;
12880;SDS011;6508;53.786;9.996;2023-03-14T00:58:29;5.72;;;2.95;;
12880;SDS011;6508;53.786;9.996;2023-03-14T01:00:57;7.25;;;3.20;;
12880;SDS011;6508;53.786;9.996;2023-03-14T01:03:25;7.53;;;3.17;;
12880;SDS011;6508;53.786;9.996;2023-03-14T01:05:53;8.55;;;3.40;;
12880;SDS011;6508;53.786;9.996;2023-03-14T01:08:21;8.05;;;2.97;;
12880;SDS011;6508;53.786;9.996;2023-03-14T01:10:49;8.38;;;3.25;;
12880;SDS011;6508;53.786;9.996;2023-03-14T01:13:18;7.60;;;2.90;;
12880;SDS011;6508;53.786;9.996;2023-03-14T01:15:47;4.72;;;2.95;;
12880;SDS011;6508;53.786;9.996;2023-03-14T01:18:14;9.20;;;3.25;;
12880;SDS011;6508;53.786;9.996;2023-03-14T01:20:42;6.72;;;3.20;;
12880;SDS011;6508;53.786;9.996;2023-03-14T01:23:10;8.73;;;3.47;;
12880;SDS011;6508;53.786;9.996;2023-03-14T01:25:40;8.93;;;3.55;;
12880;SDS011;6508;53.786;9.996;2023-03-14T01:28:08;8.23;;;3.00;;
12880;SDS011;6508;53.786;9.996;2023-03-14T01:30:37;4.22;;;3.30;;
12880;SDS011;6508;53.786;9.996;2023-03-14T01:33:05;6.65;;;3.50;;
12880;SDS011;6508;53.786;9.996;2023-03-14T01:35:33;5.13;;;3.08;;
12880;SDS011;6508;53.786;9.996;2023-03-14T01:38:01;5.97;;;2.60;;
12880;SDS011;6508;53.786;9.996;2023-03-14T01:40:29;9.93;;;2.97;;
12880;SDS011;6508;53.786;9.996;2023-03-14T01:42:57;8.88;;;3.67;;
12880;SDS011;6508;53.786;9.996;2023-03-14T01:48:42;10.15;;;3.75;;
12880;SDS011;6508;53.786;9.996;2023-03-14T01:51:15;8.70;;;3.63;;
12880;SDS011;6508;53.786;9.996;2023-03-14T01:53:44;7.20;;;3.58;;
12880;SDS011;6508;53.786;9.996;2023-03-14T01:56:14;7.13;;;3.28;;
12880;SDS011;6508;53.786;9.996;2023-03-14T01:58:43;7.72;;;3.15;;
12880;SDS011;6508;53.786;9.996;2023-03-14T02:01:14;5.38;;;3.20;;
12880;SDS011;6508;53.786;9.996;2023-03-14T02:03:46;7.15;;;3.17;;
12880;SDS011;6508;53.786;9.996;2023-03-14T02:06:17;7.40;;;3.45;;
12880;SDS011;6508;53.786;9.996;2023-03-14T02:08:47;8.15;;;3.10;;
12880;SDS011;6508;53.786;9.996;2023-03-14T02:11:19;4.95;;;3.30;;
12880;SDS011;6508;53.786;9.996;2023-03-14T02:13:58;7.35;;;3.38;;
12880;SDS011;6508;53.786;9.996;2023-03-14T02:16:53;6.90;;;3.42;;
12880;SDS011;6508;53.786;9.996;2023-03-14T02:19:48;6.78;;;3.53;;
12880;SDS011;6508;53.786;9.996;2023-03-14T02:22:33;7.10;;;3.55;;
12880;SDS011;6508;53.786;9.996;2023-03-14T02:25:06;5.88;;;2.92;;
12880;SDS011;6508;53.786;9.996;2023-03-14T02:27:37;4.68;;;3.00;;
12880;SDS011;6508;53.786;9.996;2023-03-14T02:30:07;7.03;;;3.10;;
12880;SDS011;6508;53.786;9.996;2023-03-14T02:32:41;8.20;;;3.15;;
12880;SDS011;6508;53.786;9.996;2023-03-14T02:35:14;5.63;;;3.33;;
12880;SDS011;6508;53.786;9.996;2023-03-14T02:37:45;3.47;;;2.60;;
12880;SDS011;6508;53.786;9.996;2023-03-14T02:40:13;5.28;;;2.67;;
12880;SDS011;6508;53.786;9.996;2023-03-14T02:42:43;4.22;;;3.20;;
12880;SDS011;6508;53.786;9.996;2023-03-14T02:48:04;5.05;;;3.30;;
12880;SDS011;6508;53.786;9.996;2023-03-14T02:50:37;10.30;;;3.00;;
12880;SDS011;6508;53.786;9.996;2023-03-14T02:53:05;5.53;;;2.80;;
12880;SDS011;6508;53.786;9.996;2023-03-14T02:55:33;5.40;;;3.45;;
12880;SDS011;6508;53.786;9.996;2023-03-14T02:58:08;6.78;;;3.30;;
12880;SDS011;6508;53.786;9.996;2023-03-14T03:00:36;6.28;;;3.40;;
12880;SDS011;6508;53.786;9.996;2023-03-14T03:03:06;3.72;;;3.00;;
12880;SDS011;6508;53.786;9.996;2023-03-14T03:05:34;5.30;;;3.20;;
12880;SDS011;6508;53.786;9.996;2023-03-14T03:08:02;5.68;;;3.63;;
12880;SDS011;6508;53.786;9.996;2023-03-14T03:10:31;5.90;;;3.40;;
12880;SDS011;6508;53.786;9.996;2023-03-14T03:12:59;5.03;;;3.95;;
12880;SDS011;6508;53.786;9.996;2023-03-14T03:15:29;4.78;;;3.25;;
12880;SDS011;6508;53.786;9.996;2023-03-14T03:17:57;5.78;;;3.65;;
12880;SDS011;6508;53.786;9.996;2023-03-14T03:20:24;4.10;;;3.70;;
12880;SDS011;6508;53.786;9.996;2023-03-14T03:22:52;6.05;;;3.75;;
12880;SDS011;6508;53.786;9.996;2023-03-14T03:25:20;4.57;;;3.33;;
12880;SDS011;6508;53.786;9.996;2023-03-14T03:27:49;9.43;;;3.60;;
12880;SDS011;6508;53.786;9.996;2023-03-14T03:30:17;4.18;;;3.40;;
12880;SDS011;6508;53.786;9.996;2023-03-14T03:32:48;5.25;;;3.33;;
12880;SDS011;6508;53.786;9.996;2023-03-14T03:35:16;7.05;;;3.47;;
12880;SDS011;6508;53.786;9.996;2023-03-14T03:37:44;7.72;;;3.83;;
12880;SDS011;6508;53.786;9.996;2023-03-14T03:40:12;8.48;;;3.90;;
12880;SDS011;6508;53.786;9.996;2023-03-14T03:42:39;5.20;;;3.55;;
12880;SDS011;6508;53.786;9.996;2023-03-14T03:45:09;3.53;;;3.22;;
12880;SDS011;6508;53.786;9.996;2023-03-14T03:47:48;3.55;;;3.25;;
12880;SDS011;6508;53.786;9.996;2023-03-14T03:50:16;4.25;;;3.85;;
12880;SDS011;6508;53.786;9.996;2023-03-14T03:52:44;6.22;;;4.85;;
12880;SDS011;6508;53.786;9.996;2023-03-14T03:55:12;6.63;;;4.15;;
12880;SDS011;6508;53.786;9.996;2023-03-14T03:57:39;4.22;;;3.67;;
12880;SDS011;6508;53.786;9.996;2023-03-14T04:00:07;5.43;;;4.05;;
12880;SDS011;6508;53.786;9.996;2023-03-14T04:02:41;5.38;;;3.72;;
12880;SDS011;6508;53.786;9.996;2023-03-14T04:05:14;4.13;;;3.83;;
12880;SDS011;6508;53.786;9.996;2023-03-14T04:07:52;4.97;;;3.97;;
12880;SDS011;6508;53.786;9.996;2023-03-14T04:10:24;4.90;;;3.85;;
12880;SDS011;6508;53.786;9.996;2023-03-14T04:13:07;5.43;;;3.72;;
12880;SDS011;6508;53.786;9.996;2023-03-14T04:15:37;7.90;;;4.07;;
12880;SDS011;6508;53.786;9.996;2023-03-14T04:18:18;4.93;;;3.80;;
12880;SDS011;6508;53.786;9.996;2023-03-14T04:20:51;5.38;;;3.35;;
12880;SDS011;6508;53.786;9.996;2023-03-14T04:23:23;5.28;;;3.50;;
12880;SDS011;6508;53.786;9.996;2023-03-14T04:25:51;8.07;;;4.05;;
12880;SDS011;6508;53.786;9.996;2023-03-14T04:28:21;7.28;;;3.78;;
12880;SDS011;6508;53.786;9.996;2023-03-14T04:30:49;5.68;;;4.10;;
12880;SDS011;6508;53.786;9.996;2023-03-14T04:33:20;6.00;;;4.50;;
12880;SDS011;6508;53.786;9.996;2023-03-14T04:35:54;4.97;;;4.03;;
12880;SDS011;6508;53.786;9.996;2023-03-14T04:38:23;7.25;;;4.47;;
12880;SDS011;6508;53.786;9.996;2023-03-14T04:40:52;9.02;;;4.93;;
12880;SDS011;6508;53.786;9.996;2023-03-14T04:43:23;4.07;;;3.70;;
12880;SDS011;6508;53.786;9.996;2023-03-14T04:45:58;4.82;;;4.25;;
12880;SDS011;6508;53.786;9.996;2023-03-14T04:48:26;5.53;;;3.40;;
12880;SDS011;6508;53.786;9.996;2023-03-14T04:50:56;3.35;;;2.38;;
12880;SDS011;6508;53.786;9.996;2023-03-14T04:53:24;3.47;;;2.60;;
12880;SDS011;6508;53.786;9.996;2023-03-14T04:55:55;3.35;;;2.45;;
12880;SDS011;6508;53.786;9.996;2023-03-14T04:58:29;5.93;;;2.10;;
12880;SDS011;6508;53.786;9.996;2023-03-14T05:01:01;2.10;;;1.90;;
12880;SDS011;6508;53.786;9.996;2023-03-14T05:03:37;2.05;;;1.85;;
12880;SDS011;6508;53.786;9.996;2023-03-14T05:06:22;2.28;;;1.50;;
12880;SDS011;6508;53.786;9.996;2023-03-14T05:09:11;2.28;;;1.63;;
12880;SDS011;6508;53.786;9.996;2023-03-14T05:11:57;2.65;;;1.20;;
12880;SDS011;6508;53.786;9.996;2023-03-14T05:14:45;2.97;;;1.33;;
12880;SDS011;6508;53.786;9.996;2023-03-14T05:17:25;3.90;;;1.10;;
12880;SDS011;6508;53.786;9.996;2023-03-14T05:20:11;3.25;;;1.23;;
12880;SDS011;6508;53.786;9.996;2023-03-14T05:22:59;1.42;;;1.15;;
12880;SDS011;6508;53.786;9.996;2023-03-14T05:25:46;3.88;;;1.70;;
12880;SDS011;6508;53.786;9.996;2023-03-14T05:28:32;3.05;;;1.88;;
12880;SDS011;6508;53.786;9.996;2023-03-14T05:31:10;3.17;;;1.40;;
12880;SDS011;6508;53.786;9.996;2023-03-14T05:33:49;2.88;;;1.40;;
12880;SDS011;6508;53.786;9.996;2023-03-14T05:36:32;1.60;;;1.40;;
12880;SDS011;6508;53.786;9.996;2023-03-14T05:39:21;1.83;;;1.17;;
12880;SDS011;6508;53.786;9.996;2023-03-14T05:42:08;4.05;;;1.40;;
12880;SDS011;6508;53.786;9.996;2023-03-14T05:45:02;2.22;;;1.50;;
12880;SDS011;6508;53.786;9.996;2023-03-14T05:48:02;3.05;;;1.63;;
12880;SDS011;6508;53.786;9.996;2023-03-14T05:50:40;2.42;;;1.58;;
12880;SDS011;6508;53.786;9.996;2023-03-14T05:53:18;4.32;;;1.90;;
12880;SDS011;6508;53.786;9.996;2023-03-14T05:55:54;2.88;;;1.52;;
12880;SDS011;6508;53.786;9.996;2023-03-14T05:58:33;2.28;;;1.80;;
12880;SDS011;6508;53.786;9.996;2023-03-14T06:01:05;6.05;;;2.17;;
12880;SDS011;6508;53.786;9.996;2023-03-14T06:03:45;3.00;;;1.98;;
12880;SDS011;6508;53.786;9.996;2023-03-14T06:06:13;4.45;;;1.90;;
12880;SDS011;6508;53.786;9.996;2023-03-14T06:08:43;4.20;;;2.45;;
12880;SDS011;6508;53.786;9.996;2023-03-14T06:11:12;2.42;;;2.03;;
12880;SDS011;6508;53.786;9.996;2023-03-14T06:13:40;3.45;;;2.40;;
12880;SDS011;6508;53.786;9.996;2023-03-14T06:16:08;2.95;;;2.22;;
12880;SDS011;6508;53.786;9.996;2023-03-14T06:18:36;4.28;;;2.40;;
12880;SDS011;6508;53.786;9.996;2023-03-14T06:21:07;3.85;;;3.25;;
12880;SDS011;6508;53.786;9.996;2023-03-14T06:23:36;7.25;;;3.45;;
12880;SDS011;6508;53.786;9.996;2023-03-14T06:33:44;7.30;;;3.88;;
12880;SDS011;6508;53.786;9.996;2023-03-14T06:36:13;5.93;;;3.65;;
12880;SDS011;6508;53.786;9.996;2023-03-14T06:38:43;4.07;;;3.45;;
12880;SDS011;6508;53.786;9.996;2023-03-14T06:41:12;4.75;;;2.85;;
12880;SDS011;6508;53.786;9.996;2023-03-14T06:43:42;6.47;;;3.20;;
12880;SDS011;6508;53.786;9.996;2023-03-14T06:46:11;5.15;;;3.53;;
12880;SDS011;6508;53.786;9.996;2023-03-14T06:48:41;3.20;;;2.90;;
12880;SDS011;6508;53.786;9.996;2023-03-14T06:51:12;5.97;;;3.08;;
12880;SDS011;6508;53.786;9.996;2023-03-14T06:53:40;8.45;;;3.80;;
12880;SDS011;6508;53.786;9.996;2023-03-14T06:56:09;7.10;;;2.97;;
12880;SDS011;6508;53.786;9.996;2023-03-14T06:58:37;4.60;;;3.30;;
12880;SDS011;6508;53.786;9.996;2023-03-14T07:01:12;4.43;;;3.42;;
12880;SDS011;6508;53.786;9.996;2023-03-14T07:03:45;7.35;;;3.90;;
12880;SDS011;6508;53.786;9.996;2023-03-14T07:06:15;4.60;;;4.20;;
12880;SDS011;6508;53.786;9.996;2023-03-14T07:08:44;8.75;;;4.57;;
12880;SDS011;6508;53.786;9.996;2023-03-14T07:11:14;5.65;;;4.88;;
12880;SDS011;6508;53.786;9.996;2023-03-14T07:13:44;8.43;;;4.20;;
12880;SDS011;6508;53.786;9.996;2023-03-14T07:16:13;5.63;;;3.85;;
12880;SDS011;6508;53.786;9.996;2023-03-14T07:18:43;6.47;;;4.80;;
12880;SDS011;6508;53.786;9.996;2023-03-14T07:21:11;6.22;;;3.83;;
12880;SDS011;6508;53.786;9.996;2023-03-14T07:23:41;5.07;;;4.18;;
12880;SDS011;6508;53.786;9.996;2023-03-14T07:26:11;7.97;;;3.45;;
12880;SDS011;6508;53.786;9.996;2023-03-14T07:28:45;7.03;;;3.53;;
12880;SDS011;6508;53.786;9.996;2023-03-14T07:31:17;3.72;;;3.35;;
12880;SDS011;6508;53.786;9.996;2023-03-14T07:33:45;6.57;;;3.60;;
12880;SDS011;6508;53.786;9.996;2023-03-14T07:36:13;6.00;;;3.58;;
12880;SDS011;6508;53.786;9.996;2023-03-14T07:38:44;7.53;;;3.65;;
12880;SDS011;6508;53.786;9.996;2023-03-14T07:41:32;4.97;;;4.13;;
12880;SDS011;6508;53.786;9.996;2023-03-14T07:44:24;5.50;;;4.07;;
12880;SDS011;6508;53.786;9.996;2023-03-14T07:46:52;5.07;;;3.72;;
12880;SDS011;6508;53.786;9.996;2023-03-14T07:49:20;6.63;;;4.75;;
12880;SDS011;6508;53.786;9.996;2023-03-14T07:51:48;5.68;;;3.55;;
12880;SDS011;6508;53.786;9.996;2023-03-14T07:54:18;11.60;;;4.03;;
12880;SDS011;6508;53.786;9.996;2023-03-14T07:56:46;4.68;;;3.70;;
12880;SDS011;6508;53.786;9.996;2023-03-14T07:59:14;5.95;;;3.83;;
12880;SDS011;6508;53.786;9.996;2023-03-14T08:01:43;5.78;;;3.58;;
12880;SDS011;6508;53.786;9.996;2023-03-14T08:04:11;5.53;;;3.45;;
12880;SDS011;6508;53.786;9.996;2023-03-14T08:06:38;4.80;;;2.97;;
12880;SDS011;6508;53.786;9.996;2023-03-14T08:09:07;6.68;;;3.40;;
12880;SDS011;6508;53.786;9.996;2023-03-14T08:11:36;5.28;;;2.85;;
12880;SDS011;6508;53.786;9.996;2023-03-14T08:14:04;5.28;;;2.60;;
12880;SDS011;6508;53.786;9.996;2023-03-14T08:16:32;3.25;;;2.70;;
12880;SDS011;6508;53.786;9.996;2023-03-14T08:19:01;3.95;;;3.25;;
12880;SDS011;6508;53.786;9.996;2023-03-14T08:21:29;5.10;;;3.45;;
12880;SDS011;6508;53.786;9.996;2023-03-14T08:23:57;6.30;;;4.03;;
12880;SDS011;6508;53.786;9.996;2023-03-14T08:26:26;4.30;;;3.38;;
12880;SDS011;6508;53.786;9.996;2023-03-14T08:28:56;8.85;;;3.08;;
12880;SDS011;6508;53.786;9.996;2023-03-14T08:31:24;8.02;;;3.03;;
12880;SDS011;6508;53.786;9.996;2023-03-14T08:33:53;4.15;;;3.38;;
12880;SDS011;6508;53.786;9.996;2023-03-14T08:36:21;3.92;;;2.88;;
12880;SDS011;6508;53.786;9.996;2023-03-14T08:38:49;3.97;;;2.80;;
12880;SDS011;6508;53.786;9.996;2023-03-14T08:41:17;5.18;;;2.97;;
12880;SDS011;6508;53.786;9.996;2023-03-14T08:43:46;3.95;;;2.63;;
12880;SDS011;6508;53.786;9.996;2023-03-14T08:46:15;4.35;;;2.45;;
12880;SDS011;6508;53.786;9.996;2023-03-14T08:48:44;5.72;;;2.50;;
12880;SDS011;6508;53.786;9.996;2023-03-14T08:51:12;3.35;;;2.90;;
12880;SDS011;6508;53.786;9.996;2023-03-14T08:53:41;4.32;;;2.13;;
12880;SDS011;6508;53.786;9.996;2023-03-14T08:56:10;5.07;;;2.60;;
12880;SDS011;6508;53.786;9.996;2023-03-14T08:58:38;6.13;;;2.20;;
12880;SDS011;6508;53.786;9.996;2023-03-14T09:01:08;5.03;;;2.67;;
12880;SDS011;6508;53.786;9.996;2023-03-14T09:03:38;3.47;;;2.38;;
12880;SDS011;6508;53.786;9.996;2023-03-14T09:06:07;4.65;;;3.03;;
12880;SDS011;6508;53.786;9.996;2023-03-14T09:08:36;6.25;;;3.00;;
12880;SDS011;6508;53.786;9.996;2023-03-14T09:11:06;4.53;;;3.15;;
12880;SDS011;6508;53.786;9.996;2023-03-14T09:13:35;2.85;;;2.65;;
12880;SDS011;6508;53.786;9.996;2023-03-14T09:16:03;3.28;;;2.17;;
12880;SDS011;6508;53.786;9.996;2023-03-14T09:18:32;3.42;;;2.20;;
12880;SDS011;6508;53.786;9.996;2023-03-14T09:21:01;5.43;;;2.85;;
12880;SDS011;6508;53.786;9.996;2023-03-14T09:23:29;5.22;;;2.55;;
12880;SDS011;6508;53.786;9.996;2023-03-14T09:25:58;2.80;;;2.60;;
12880;SDS011;6508;53.786;9.996;2023-03-14T09:28:26;5.60;;;2.53;;
12880;SDS011;6508;53.786;9.996;2023-03-14T09:30:54;5.28;;;2.88;;
12880;SDS011;6508;53.786;9.996;2023-03-14T09:33:22;3.05;;;2.78;;
12880;SDS011;6508;53.786;9.996;2023-03-14T09:35:50;2.70;;;2.50;;
12880;SDS011;6508;53.786;9.996;2023-03-14T09:38:20;3.22;;;2.67;;
12880;SDS011;6508;53.786;9.996;2023-03-14T09:40:49;3.90;;;2.00;;
12880;SDS011;6508;53.786;9.996;2023-03-14T09:43:18;4.25;;;1.27;;
12880;SDS011;6508;53.786;9.996;2023-03-14T09:45:46;2.85;;;1.15;;
12880;SDS011;6508;53.786;9.996;2023-03-14T09:48:16;2.60;;;1.27;;
12880;SDS011;6508;53.786;9.996;2023-03-14T09:50:49;1.10;;;1.00;;
12880;SDS011;6508;53.786;9.996;2023-03-14T09:53:20;1.42;;;1.33;;
12880;SDS011;6508;53.786;9.996;2023-03-14T09:55:51;1.45;;;1.27;;
12880;SDS011;6508;53.786;9.996;2023-03-14T09:58:20;1.70;;;1.60;;
12880;SDS011;6508;53.786;9.996;2023-03-14T10:00:50;1.52;;;1.17;;
12880;SDS011;6508;53.786;9.996;2023-03-14T10:03:22;1.20;;;1.10;;
12880;SDS011;6508;53.786;9.996;2023-03-14T10:05:53;1.30;;;1.10;;
12880;SDS011;6508;53.786;9.996;2023-03-14T10:08:24;0.85;;;0.73;;
12880;SDS011;6508;53.786;9.996;2023-03-14T10:10:52;1.08;;;0.85;;
12880;SDS011;6508;53.786;9.996;2023-03-14T10:13:22;0.70;;;0.70;;
12880;SDS011;6508;53.786;9.996;2023-03-14T10:15:53;3.50;;;1.02;;
12880;SDS011;6508;53.786;9.996;2023-03-14T10:18:22;1.77;;;0.90;;
12880;SDS011;6508;53.786;9.996;2023-03-14T10:21:02;1.77;;;1.00;;
12880;SDS011;6508;53.786;9.996;2023-03-14T10:23:33;1.77;;;0.98;;
12880;SDS011;6508;53.786;9.996;2023-03-14T10:26:03;0.82;;;0.80;;
12880;SDS011;6508;53.786;9.996;2023-03-14T10:28:37;3.72;;;2.17;;
12880;SDS011;6508;53.786;9.996;2023-03-14T10:31:06;0.85;;;0.80;;
12880;SDS011;6508;53.786;9.996;2023-03-14T10:33:35;0.70;;;0.70;;
12880;SDS011;6508;53.786;9.996;2023-03-14T10:36:05;0.90;;;0.90;;
12880;SDS011;6508;53.786;9.996;2023-03-14T10:38:47;1.67;;;0.70;;
12880;SDS011;6508;53.786;9.996;2023-03-14T10:41:16;0.80;;;0.80;;
12880;SDS011;6508;53.786;9.996;2023-03-14T10:43:45;1.60;;;1.02;;
12880;SDS011;6508;53.786;9.996;2023-03-14T10:46:18;1.48;;;0.80;;
12880;SDS011;6508;53.786;9.996;2023-03-14T10:49:06;0.82;;;0.80;;
12880;SDS011;6508;53.786;9.996;2023-03-14T10:51:34;0.73;;;0.70;;
12880;SDS011;6508;53.786;9.996;2023-03-14T10:54:11;1.55;;;0.60;;
12880;SDS011;6508;53.786;9.996;2023-03-14T10:56:40;0.60;;;0.60;;
12880;SDS011;6508;53.786;9.996;2023-03-14T10:59:11;0.73;;;0.73;;
12880;SDS011;6508;53.786;9.996;2023-03-14T11:01:41;2.22;;;0.70;;
12880;SDS011;6508;53.786;9.996;2023-03-14T11:04:19;1.42;;;0.70;;
12880;SDS011;6508;53.786;9.996;2023-03-14T11:06:55;1.23;;;0.65;;
12880;SDS011;6508;53.786;9.996;2023-03-14T11:09:28;2.05;;;0.60;;
12880;SDS011;6508;53.786;9.996;2023-03-14T11:12:02;1.40;;;0.63;;
12880;SDS011;6508;53.786;9.996;2023-03-14T11:14:38;1.20;;;0.60;;
12880;SDS011;6508;53.786;9.996;2023-03-14T11:17:10;2.35;;;0.70;;
12880;SDS011;6508;53.786;9.996;2023-03-14T11:19:43;2.20;;;1.02;;
12880;SDS011;6508;53.786;9.996;2023-03-14T11:22:20;1.70;;;1.27;;
12880;SDS011;6508;53.786;9.996;2023-03-14T11:24:53;3.42;;;0.80;;
12880;SDS011;6508;53.786;9.996;2023-03-14T11:27:36;3.00;;;1.27;;
12880;SDS011;6508;53.786;9.996;2023-03-14T11:30:15;2.20;;;1.00;;
12880;SDS011;6508;53.786;9.996;2023-03-14T11:32:46;1.00;;;0.90;;
12880;SDS011;6508;53.786;9.996;2023-03-14T11:35:20;4.53;;;1.10;;
12880;SDS011;6508;53.786;9.996;2023-03-14T11:37:52;4.10;;;1.67;;
12880;SDS011;6508;53.786;9.996;2023-03-14T11:40:25;3.78;;;1.45;;
12880;SDS011;6508;53.786;9.996;2023-03-14T11:42:57;2.85;;;1.15;;
12880;SDS011;6508;53.786;9.996;2023-03-14T11:45:29;4.28;;;1.30;;
12880;SDS011;6508;53.786;9.996;2023-03-14T11:48:07;2.28;;;1.48;;
12880;SDS011;6508;53.786;9.996;2023-03-14T11:50:42;4.72;;;2.20;;
12880;SDS011;6508;53.786;9.996;2023-03-14T11:53:11;1.75;;;1.65;;
12880;SDS011;6508;53.786;9.996;2023-03-14T11:55:43;5.78;;;1.95;;
12880;SDS011;6508;53.786;9.996;2023-03-14T11:58:14;2.88;;;1.40;;
12880;SDS011;6508;53.786;9.996;2023-03-14T12:00:44;4.47;;;1.45;;
12880;SDS011;6508;53.786;9.996;2023-03-14T12:03:15;5.72;;;1.80;;
12880;SDS011;6508;53.786;9.996;2023-03-14T12:05:50;3.22;;;1.77;;
12880;SDS011;6508;53.786;9.996;2023-03-14T12:08:32;4.00;;;1.75;;
12880;SDS011;6508;53.786;9.996;2023-03-14T12:11:23;5.20;;;2.00;;
12880;SDS011;6508;53.786;9.996;2023-03-14T12:13:58;8.38;;;2.22;;
12880;SDS011;6508;53.786;9.996;2023-03-14T12:16:31;6.25;;;2.08;;
12880;SDS011;6508;53.786;9.996;2023-03-14T12:19:14;2.38;;;2.17;;
12880;SDS011;6508;53.786;9.996;2023-03-14T12:21:50;7.00;;;2.38;;
12880;SDS011;6508;53.786;9.996;2023-03-14T12:24:21;7.35;;;2.35;;
12880;SDS011;6508;53.786;9.996;2023-03-14T12:26:56;5.63;;;2.20;;
12880;SDS011;6508;53.786;9.996;2023-03-14T12:29:26;6.00;;;2.20;;
12880;SDS011;6508;53.786;9.996;2023-03-14T12:32:06;2.60;;;1.60;;
12880;SDS011;6508;53.786;9.996;2023-03-14T12:34:39;7.85;;;2.25;;
12880;SDS011;6508;53.786;9.996;2023-03-14T12:37:15;3.47;;;2.05;;
12880;SDS011;6508;53.786;9.996;2023-03-14T12:39:49;2.50;;;1.80;;
12880;SDS011;6508;53.786;9.996;2023-03-14T12:42:38;4.57;;;2.08;;
12880;SDS011;6508;53.786;9.996;2023-03-14T12:45:23;4.00;;;2.05;;
12880;SDS011;6508;53.786;9.996;2023-03-14T12:48:03;7.63;;;1.88;;
12880;SDS011;6508;53.786;9.996;2023-03-14T12:50:53;5.00;;;1.98;;
12880;SDS011;6508;53.786;9.996;2023-03-14T12:56:24;4.18;;;1.75;;
12880;SDS011;6508;53.786;9.996;2023-03-14T12:58:58;15.10;;;3.03;;
12880;SDS011;6508;53.786;9.996;2023-03-14T13:01:40;11.35;;;2.50;;
12880;SDS011;6508;53.786;9.996;2023-03-14T13:04:14;7.07;;;1.73;;
12880;SDS011;6508;53.786;9.996;2023-03-14T13:06:52;11.70;;;2.42;;
12880;SDS011;6508;53.786;9.996;2023-03-14T13:09:48;7.35;;;1.98;;
12880;SDS011;6508;53.786;9.996;2023-03-14T13:12:22;8.10;;;2.45;;
12880;SDS011;6508;53.786;9.996;2023-03-14T13:14:57;11.25;;;3.42;;
12880;SDS011;6508;53.786;9.996;2023-03-14T13:17:27;8.93;;;2.92;;
12880;SDS011;6508;53.786;9.996;2023-03-14T13:20:05;9.95;;;3.20;;
12880;SDS011;6508;53.786;9.996;2023-03-14T13:22:39;9.63;;;3.47;;
12880;SDS011;6508;53.786;9.996;2023-03-14T13:25:14;6.50;;;3.70;;
12880;SDS011;6508;53.786;9.996;2023-03-14T13:27:45;4.50;;;3.28;;
12880;SDS011;6508;53.786;9.996;2023-03-14T13:30:16;4.43;;;3.22;;
12880;SDS011;6508;53.786;9.996;2023-03-14T13:32:48;7.22;;;4.15;;
12880;SDS011;6508;53.786;9.996;2023-03-14T13:35:19;4.50;;;3.40;;
12880;SDS011;6508;53.786;9.996;2023-03-14T13:37:51;4.93;;;3.47;;
12880;SDS011;6508;53.786;9.996;2023-03-14T13:40:36;5.05;;;2.83;;
12880;SDS011;6508;53.786;9.996;2023-03-14T13:43:11;10.07;;;3.67;;
12880;SDS011;6508;53.786;9.996;2023-03-14T13:45:47;6.70;;;3.25;;
12880;SDS011;6508;53.786;9.996;2023-03-14T13:48:20;5.22;;;3.63;;
12880;SDS011;6508;53.786;9.996;2023-03-14T13:50:53;8.48;;;3.20;;
12880;SDS011;6508;53.786;9.996;2023-03-14T13:53:23;4.50;;;3.20;;
12880;SDS011;6508;53.786;9.996;2023-03-14T13:55:52;5.20;;;3.40;;
12880;SDS011;6508;53.786;9.996;2023-03-14T13:58:21;5.13;;;3.47;;
12880;SDS011;6508;53.786;9.996;2023-03-14T14:01:03;5.40;;;3.17;;
12880;SDS011;6508;53.786;9.996;2023-03-14T14:03:34;5.20;;;3.08;;
12880;SDS011;6508;53.786;9.996;2023-03-14T14:06:06;5.50;;;3.15;;
12880;SDS011;6508;53.786;9.996;2023-03-14T14:08:40;7.20;;;3.30;;
12880;SDS011;6508;53.786;9.996;2023-03-14T14:11:09;4.97;;;2.92;;
12880;SDS011;6508;53.786;9.996;2023-03-14T14:13:44;3.88;;;3.50;;
12880;SDS011;6508;53.786;9.996;2023-03-14T14:16:14;4.00;;;3.25;;
12880;SDS011;6508;53.786;9.996;2023-03-14T14:18:45;6.28;;;3.40;;
12880;SDS011;6508;53.786;9.996;2023-03-14T14:21:13;9.07;;;3.65;;
12880;SDS011;6508;53.786;9.996;2023-03-14T14:23:42;7.15;;;3.38;;
12880;SDS011;6508;53.786;9.996;2023-03-14T14:26:13;5.50;;;3.30;;
12880;SDS011;6508;53.786;9.996;2023-03-14T14:28:42;6.47;;;3.55;;
12880;SDS011;6508;53.786;9.996;2023-03-14T14:31:20;5.30;;;3.42;;
12880;SDS011;6508;53.786;9.996;2023-03-14T14:33:55;11.25;;;3.67;;
12880;SDS011;6508;53.786;9.996;2023-03-14T14:36:25;4.22;;;2.95;;
12880;SDS011;6508;53.786;9.996;2023-03-14T14:39:00;2.95;;;2.72;;
12880;SDS011;6508;53.786;9.996;2023-03-14T14:41:31;5.25;;;3.03;;
12880;SDS011;6508;53.786;9.996;2023-03-14T14:44:01;5.20;;;2.80;;
12880;SDS011;6508;53.786;9.996;2023-03-14T14:46:33;5.22;;;2.95;;
12880;SDS011;6508;53.786;9.996;2023-03-14T14:49:03;3.58;;;2.83;;
12880;SDS011;6508;53.786;9.996;2023-03-14T14:51:33;4.80;;;3.35;;
12880;SDS011;6508;53.786;9.996;2023-03-14T14:54:10;3.72;;;3.42;;
12880;SDS011;6508;53.786;9.996;2023-03-14T14:56:40;4.85;;;3.70;;
12880;SDS011;6508;53.786;9.996;2023-03-14T14:59:18;3.58;;;3.30;;
12880;SDS011;6508;53.786;9.996;2023-03-14T15:01:54;8.45;;;3.70;;
12880;SDS011;6508;53.786;9.996;2023-03-14T15:04:23;3.40;;;3.20;;
12880;SDS011;6508;53.786;9.996;2023-03-14T15:06:53;5.40;;;3.83;;
12880;SDS011;6508;53.786;9.996;2023-03-14T15:09:21;4.63;;;3.25;;
12880;SDS011;6508;53.786;9.996;2023-03-14T15:11:49;3.92;;;3.33;;
12880;SDS011;6508;53.786;9.996;2023-03-14T15:14:18;4.65;;;3.50;;
12880;SDS011;6508;53.786;9.996;2023-03-14T15:16:47;9.60;;;3.30;;
12880;SDS011;6508;53.786;9.996;2023-03-14T15:19:19;4.75;;;3.53;;
12880;SDS011;6508;53.786;9.996;2023-03-14T15:21:50;3.80;;;3.60;;
12880;SDS011;6508;53.786;9.996;2023-03-14T15:24:19;4.90;;;3.53;;
12880;SDS011;6508;53.786;9.996;2023-03-14T15:26:47;7.20;;;4.10;;
12880;SDS011;6508;53.786;9.996;2023-03-14T15:29:16;5.13;;;3.80;;
12880;SDS011;6508;53.786;9.996;2023-03-14T15:31:44;5.07;;;3.85;;
12880;SDS011;6508;53.786;9.996;2023-03-14T15:34:12;4.88;;;3.60;;
12880;SDS011;6508;53.786;9.996;2023-03-14T15:36:42;7.63;;;3.97;;
12880;SDS011;6508;53.786;9.996;2023-03-14T15:39:11;6.20;;;4.40;;
12880;SDS011;6508;53.786;9.996;2023-03-14T15:41:43;6.93;;;3.88;;
12880;SDS011;6508;53.786;9.996;2023-03-14T15:44:12;5.13;;;3.65;;
12880;SDS011;6508;53.786;9.996;2023-03-14T15:46:40;4.78;;;3.38;;